Time;durP1;ratioP1;P1;durP2;ratioP2;P2;SDS_P1;SDS_P2;PMS_P1;PMS_P2;Temp;Humidity;BMP_temperature;BMP_pressure;BME280_temperature;BME280_humidity;BME280_pressure;Samples;Min_cycle;Max_cycle;Signal;HPM_P1;HPM_P2
2023/09/21 00:00:14;;;;;;;3.53;1.23;;;16.90;99.90;;;;;;4970483;28;20046;-62
2023/09/21 00:02:44;;;;;;;1.63;0.65;;;16.90;99.90;;;;;;4969427;28;20054;-62
2023/09/21 00:05:11;;;;;;;3.42;0.52;;;17.00;99.90;;;;;;4969488;28;20057;-61
2023/09/21 00:07:37;;;;;;;5.20;1.30;;;16.90;99.90;;;;;;4970443;28;20096;-62
2023/09/21 00:10:05;;;;;;;4.93;1.10;;;16.90;99.90;;;;;;4963025;28;20459;-60
2023/09/21 00:12:31;;;;;;;1.70;0.63;;;16.90;99.90;;;;;;4970564;28;20451;-62
2023/09/21 00:14:58;;;;;;;1.65;0.63;;;16.90;99.90;;;;;;4970365;28;20046;-62
2023/09/21 00:17:24;;;;;;;1.58;0.70;;;16.90;99.90;;;;;;4987097;28;20490;-61
2023/09/21 00:19:50;;;;;;;2.40;0.85;;;16.90;99.90;;;;;;4970189;28;20053;-62
2023/09/21 00:22:16;;;;;;;1.85;0.77;;;16.90;99.90;;;;;;4954185;28;20103;-62
2023/09/21 00:24:42;;;;;;;3.15;0.93;;;16.90;99.90;;;;;;4969223;28;20390;-60
2023/09/21 00:27:08;;;;;;;3.72;1.17;;;16.90;99.90;;;;;;4954338;28;20122;-61
2023/09/21 00:29:36;;;;;;;2.50;0.93;;;16.90;99.90;;;;;;4969779;28;20537;-63
2023/09/21 00:32:02;;;;;;;2.40;0.57;;;16.90;99.90;;;;;;4970049;28;20204;-61
2023/09/21 00:34:28;;;;;;;1.67;0.73;;;16.90;99.90;;;;;;4969904;28;20042;-62
2023/09/21 00:36:53;;;;;;;1.10;0.60;;;17.00;99.90;;;;;;4969283;28;20050;-62
2023/09/21 00:39:19;;;;;;;1.90;0.73;;;17.00;99.90;;;;;;4953872;28;20042;-62
2023/09/21 00:41:45;;;;;;;1.95;1.08;;;17.00;99.90;;;;;;4969886;28;20050;-60
2023/09/21 00:44:11;;;;;;;1.15;0.63;;;17.00;99.90;;;;;;4969487;28;20050;-60
2023/09/21 00:46:38;;;;;;;0.70;0.55;;;17.00;99.90;;;;;;4968356;28;20039;-63
2023/09/21 00:49:05;;;;;;;2.95;1.02;;;17.10;99.90;;;;;;4951962;28;20046;-60
2023/09/21 00:51:33;;;;;;;2.53;1.17;;;17.10;99.90;;;;;;4969192;28;20048;-63
2023/09/21 00:54:05;;;;;;;1.92;0.70;;;17.10;99.90;;;;;;4969724;28;20062;-61
2023/09/21 00:56:31;;;;;;;1.45;0.70;;;17.20;99.90;;;;;;4969740;28;20498;-61
2023/09/21 00:59:00;;;;;;;1.05;0.82;;;17.20;99.90;;;;;;4953131;28;20035;-61
2023/09/21 01:01:28;;;;;;;1.75;1.02;;;17.20;99.90;;;;;;4970133;28;20081;-63
2023/09/21 01:03:55;;;;;;;1.45;0.77;;;17.20;99.90;;;;;;4999854;28;20058;-63
2023/09/21 01:06:22;;;;;;;1.98;0.85;;;17.20;99.90;;;;;;4968560;28;20050;-60
2023/09/21 01:08:48;;;;;;;1.75;0.70;;;17.30;99.90;;;;;;4968968;28;20046;-60
2023/09/21 01:11:15;;;;;;;1.30;0.80;;;17.30;99.90;;;;;;4969673;28;20502;-61
2023/09/21 01:13:41;;;;;;;1.13;0.75;;;17.30;99.90;;;;;;4953101;28;20409;-60
2023/09/21 01:16:11;;;;;;;1.17;0.50;;;17.30;99.90;;;;;;4969634;28;20066;-61
2023/09/21 01:18:40;;;;;;;;;;;17.40;99.90;;;;;;4969299;28;20562;-60
2023/09/21 01:21:09;;;;;;;2.10;0.90;;;17.30;99.90;;;;;;4986758;28;19962;-60
2023/09/21 01:23:42;;;;;;;2.42;0.80;;;17.40;99.90;;;;;;4986870;28;20042;-61
2023/09/21 01:26:16;;;;;;;1.42;0.77;;;17.40;99.90;;;;;;4985933;28;20050;-60
2023/09/21 01:28:47;;;;;;;2.97;0.57;;;17.40;99.90;;;;;;4953790;28;20043;-61
2023/09/21 01:31:13;;;;;;;1.35;0.82;;;17.40;99.90;;;;;;4969120;28;20046;-62
2023/09/21 01:33:43;;;;;;;0.85;0.57;;;17.50;99.90;;;;;;4952469;28;20085;-62
2023/09/21 01:36:12;;;;;;;0.73;0.40;;;17.50;99.90;;;;;;4969183;28;20038;-60
2023/09/21 01:38:38;;;;;;;2.08;0.73;;;17.60;99.90;;;;;;4953090;28;20043;-60
2023/09/21 01:41:06;;;;;;;1.30;0.60;;;17.60;99.90;;;;;;4968819;28;20046;-60
2023/09/21 01:43:33;;;;;;;1.67;0.80;;;17.60;99.90;;;;;;4969147;28;20061;-61
2023/09/21 01:45:59;;;;;;;0.77;0.43;;;17.60;99.90;;;;;;4969433;28;20103;-61
2023/09/21 01:48:27;;;;;;;1.05;0.40;;;17.70;99.90;;;;;;4968729;28;20085;-60
2023/09/21 01:50:57;;;;;;;1.20;0.60;;;17.70;99.90;;;;;;4961069;28;20055;-60
2023/09/21 01:53:23;;;;;;;1.42;0.70;;;17.70;99.90;;;;;;4952701;28;20175;-64
2023/09/21 01:55:50;;;;;;;2.00;0.40;;;17.70;99.90;;;;;;4968556;28;20066;-63
2023/09/21 01:58:23;;;;;;;3.97;1.20;;;17.70;99.90;;;;;;4970188;28;20047;-61
2023/09/21 02:00:49;;;;;;;0.43;0.32;;;17.70;99.90;;;;;;4955516;28;20054;-62
2023/09/21 02:03:20;;;;;;;0.52;0.38;;;17.70;99.90;;;;;;4989975;28;20034;-60
2023/09/21 02:05:46;;;;;;;5.70;1.23;;;17.70;99.90;;;;;;4989655;28;20138;-64
2023/09/21 02:08:13;;;;;;;1.98;0.85;;;17.70;99.90;;;;;;4955592;28;20147;-60
2023/09/21 02:10:40;;;;;;;2.03;0.88;;;17.70;99.90;;;;;;4970921;28;20043;-64
2023/09/21 02:13:07;;;;;;;2.60;0.85;;;17.70;99.90;;;;;;4972227;28;20117;-61
2023/09/21 02:15:37;;;;;;;3.13;1.17;;;17.70;99.90;;;;;;4971490;28;20038;-61
2023/09/21 02:18:04;;;;;;;1.33;0.80;;;17.70;99.90;;;;;;4972098;28;20054;-60
2023/09/21 02:20:32;;;;;;;2.15;0.82;;;17.60;99.90;;;;;;4972036;28;20058;-63
2023/09/21 02:22:59;;;;;;;2.33;0.70;;;17.70;99.90;;;;;;4971384;28;20074;-61
2023/09/21 02:25:26;;;;;;;1.60;0.43;;;17.60;99.90;;;;;;4955908;28;20055;-61
2023/09/21 02:27:52;;;;;;;1.33;0.88;;;17.60;99.90;;;;;;4989261;28;20103;-61
2023/09/21 02:30:21;;;;;;;4.25;1.00;;;17.60;99.90;;;;;;4971260;28;20043;-61
2023/09/21 02:32:50;;;;;;;2.10;0.45;;;17.60;99.90;;;;;;4955745;28;20064;-63
2023/09/21 02:35:26;;;;;;;2.25;0.95;;;17.60;99.90;;;;;;4971727;28;20074;-61
2023/09/21 02:37:56;;;;;;;4.68;1.42;;;17.60;99.90;;;;;;4988602;28;20081;-61
2023/09/21 02:40:23;;;;;;;1.92;0.70;;;17.50;99.90;;;;;;4989150;28;20078;-61
2023/09/21 02:42:50;;;;;;;1.48;0.77;;;17.50;99.90;;;;;;4971115;28;20069;-61
2023/09/21 02:45:24;;;;;;;0.82;0.47;;;17.50;99.90;;;;;;4971849;28;20124;-60
2023/09/21 02:48:00;;;;;;;1.10;0.70;;;17.50;99.90;;;;;;4971741;28;20129;-61
2023/09/21 02:50:27;;;;;;;1.70;0.55;;;17.50;99.90;;;;;;4970983;28;20042;-61
2023/09/21 02:53:01;;;;;;;0.90;0.50;;;17.50;99.90;;;;;;4971280;28;20049;-59
2023/09/21 02:55:28;;;;;;;1.15;0.50;;;17.50;99.90;;;;;;4972153;28;20034;-64
2023/09/21 02:57:58;;;;;;;2.22;0.80;;;17.50;99.90;;;;;;4972045;28;20096;-61
2023/09/21 03:00:26;;;;;;;3.00;1.42;;;17.50;99.90;;;;;;4972597;28;20038;-63
2023/09/21 03:02:55;;;;;;;2.25;0.68;;;17.50;99.90;;;;;;4972704;28;20058;-61
2023/09/21 03:05:23;;;;;;;1.17;0.60;;;17.50;99.90;;;;;;4972072;28;20046;-60
2023/09/21 03:07:49;;;;;;;2.05;1.08;;;17.50;99.90;;;;;;4972665;28;20482;-61
2023/09/21 03:10:16;;;;;;;1.48;0.82;;;17.50;99.90;;;;;;4971560;28;20042;-60
2023/09/21 03:12:42;;;;;;;3.45;1.00;;;17.50;99.90;;;;;;4970807;28;20054;-61
2023/09/21 03:15:15;;;;;;;1.65;0.80;;;17.50;99.90;;;;;;4972042;28;20042;-60
2023/09/21 03:17:42;;;;;;;1.63;0.80;;;17.50;99.90;;;;;;4969803;28;20039;-60
2023/09/21 03:20:12;;;;;;;1.65;0.60;;;17.50;99.90;;;;;;4953514;28;20449;-62
2023/09/21 03:22:43;;;;;;;3.45;1.40;;;17.60;99.90;;;;;;4970212;28;20047;-60
2023/09/21 03:25:11;;;;;;;0.95;0.82;;;17.60;99.90;;;;;;4964943;28;20051;-63
2023/09/21 03:27:40;;;;;;;1.35;0.40;;;17.60;99.90;;;;;;5053457;28;20055;-61
2023/09/21 03:30:10;;;;;;;1.17;0.85;;;17.60;99.90;;;;;;5053537;28;20048;-61
2023/09/21 03:32:38;;;;;;;1.30;0.50;;;17.70;99.90;;;;;;5071024;28;20071;-60
2023/09/21 03:35:06;;;;;;;3.28;0.75;;;17.70;99.90;;;;;;5053521;28;20044;-61
2023/09/21 03:37:31;;;;;;;2.40;0.90;;;17.70;99.90;;;;;;5054053;28;20105;-61
2023/09/21 03:39:57;;;;;;;3.50;0.70;;;17.70;99.90;;;;;;5052970;28;20504;-61
2023/09/21 03:42:23;;;;;;;2.63;0.55;;;17.70;99.90;;;;;;5053817;28;20041;-61
2023/09/21 03:44:49;;;;;;;2.08;1.02;;;17.80;99.90;;;;;;5053298;28;20044;-61
2023/09/21 03:47:17;;;;;;;1.70;0.57;;;17.80;99.90;;;;;;5053010;28;20143;-61
2023/09/21 03:49:46;;;;;;;2.10;0.68;;;17.80;99.90;;;;;;5071043;28;20370;-59
2023/09/21 03:52:15;;;;;;;2.20;0.77;;;17.80;99.90;;;;;;5053396;28;20488;-60
2023/09/21 03:54:47;;;;;;;1.55;0.50;;;17.80;99.90;;;;;;5052150;28;20048;-60
2023/09/21 03:57:16;;;;;;;2.08;0.73;;;17.80;99.90;;;;;;5036377;28;20488;-60
2023/09/21 03:59:42;;;;;;;2.47;0.97;;;17.80;99.90;;;;;;5052523;28;20110;-60
2023/09/21 04:02:08;;;;;;;2.58;0.40;;;17.80;99.90;;;;;;5053082;28;20048;-61
2023/09/21 04:04:34;;;;;;;2.67;0.93;;;17.70;99.90;;;;;;5052784;28;20047;-61
2023/09/21 04:07:00;;;;;;;1.67;0.47;;;17.70;99.90;;;;;;5052283;28;20049;-60
2023/09/21 04:09:26;;;;;;;1.40;0.68;;;17.70;99.90;;;;;;5070847;28;20048;-60
2023/09/21 04:11:51;;;;;;;3.70;1.20;;;17.60;99.90;;;;;;5050221;28;20041;-62
2023/09/21 04:14:17;;;;;;;2.97;1.13;;;17.60;99.90;;;;;;5039710;28;20477;-61
2023/09/21 04:16:43;;;;;;;1.25;0.40;;;17.60;99.90;;;;;;5051909;28;20480;-61
2023/09/21 04:19:10;;;;;;;1.85;0.80;;;17.60;99.90;;;;;;5070606;28;20423;-60
2023/09/21 04:21:36;;;;;;;5.95;1.02;;;17.50;99.90;;;;;;5068894;28;20040;-61
2023/09/21 04:24:02;;;;;;;4.82;0.93;;;17.50;99.90;;;;;;5052649;28;20068;-60
2023/09/21 04:26:29;;;;;;;1.58;0.73;;;17.50;99.90;;;;;;4984465;28;20156;-61
2023/09/21 04:28:55;;;;;;;1.60;0.90;;;17.50;99.90;;;;;;4970427;28;20047;-60
2023/09/21 04:31:21;;;;;;;0.68;0.40;;;17.40;99.90;;;;;;4971132;28;20046;-60
2023/09/21 04:33:47;;;;;;;1.23;0.57;;;17.40;99.90;;;;;;4971362;28;20065;-61
2023/09/21 04:36:13;;;;;;;1.08;0.60;;;17.40;99.90;;;;;;4970749;28;20034;-61
2023/09/21 04:38:39;;;;;;;2.47;0.50;;;17.40;99.90;;;;;;4988341;28;20553;-60
2023/09/21 04:41:06;;;;;;;1.88;1.13;;;17.40;99.90;;;;;;4971015;28;20042;-60
2023/09/21 04:43:32;;;;;;;2.58;0.60;;;17.30;99.90;;;;;;4970339;28;20046;-60
2023/09/21 04:46:03;;;;;;;2.15;1.00;;;17.30;99.90;;;;;;4970811;28;20514;-60
2023/09/21 04:48:30;;;;;;;1.70;0.65;;;17.30;99.90;;;;;;4970840;28;20051;-61
2023/09/21 04:50:56;;;;;;;2.33;0.45;;;17.30;99.90;;;;;;4965552;28;20046;-60
2023/09/21 04:53:22;;;;;;;1.45;0.90;;;17.30;99.90;;;;;;4970810;28;20045;-60
2023/09/21 04:55:47;;;;;;;4.35;1.08;;;17.30;99.90;;;;;;4970164;28;20042;-60
2023/09/21 04:58:13;;;;;;;3.00;0.90;;;17.20;99.90;;;;;;4970867;28;20039;-60
2023/09/21 05:00:39;;;;;;;1.10;0.50;;;17.20;99.90;;;;;;4952461;28;20070;-60
2023/09/21 05:03:06;;;;;;;1.23;0.73;;;17.20;99.90;;;;;;4970092;28;20075;-60
2023/09/21 05:05:32;;;;;;;1.67;0.70;;;17.20;99.90;;;;;;4971119;28;20050;-60
2023/09/21 05:07:58;;;;;;;1.08;0.55;;;17.20;99.90;;;;;;4969134;28;20558;-60
2023/09/21 05:10:23;;;;;;;1.15;0.57;;;17.20;99.90;;;;;;4966697;28;20047;-61
2023/09/21 05:12:51;;;;;;;1.83;0.73;;;17.20;99.90;;;;;;4968576;28;20046;-61
2023/09/21 05:15:17;;;;;;;0.98;0.60;;;17.20;99.90;;;;;;4967499;28;20046;-60
2023/09/21 05:17:43;;;;;;;1.23;0.50;;;17.20;99.90;;;;;;4985401;28;20135;-60
2023/09/21 05:20:09;;;;;;;1.15;0.63;;;17.20;99.90;;;;;;4969845;28;20042;-60
2023/09/21 05:22:39;;;;;;;0.93;0.57;;;17.30;99.90;;;;;;4970524;28;20046;-60
2023/09/21 05:25:05;;;;;;;1.80;0.85;;;17.30;99.90;;;;;;4987072;28;20160;-59
2023/09/21 05:27:31;;;;;;;1.08;0.60;;;17.30;99.90;;;;;;4988048;28;20043;-60
2023/09/21 05:30:01;;;;;;;4.07;0.55;;;17.40;99.90;;;;;;4970451;28;20244;-60
2023/09/21 05:32:32;;;;;;;1.65;0.75;;;17.40;99.90;;;;;;4969879;28;20495;-60
2023/09/21 05:34:59;;;;;;;2.58;0.75;;;17.40;99.90;;;;;;4977164;28;20030;-60
2023/09/21 05:37:24;;;;;;;1.10;0.88;;;17.40;99.90;;;;;;4993367;28;20052;-61
2023/09/21 05:39:51;;;;;;;0.30;0.28;;;17.50;99.90;;;;;;4992149;28;20486;-61
2023/09/21 05:42:17;;;;;;;2.15;0.63;;;17.50;99.90;;;;;;5010085;28;20539;-60
2023/09/21 05:44:43;;;;;;;2.65;0.77;;;17.50;99.90;;;;;;4992539;28;20053;-61
2023/09/21 05:47:10;;;;;;;0.98;0.60;;;17.50;99.90;;;;;;4976109;28;20069;-61
2023/09/21 05:49:39;;;;;;;1.52;1.13;;;17.60;99.90;;;;;;4973415;28;20081;-60
2023/09/21 05:52:14;;;;;;;5.78;1.05;;;17.60;99.90;;;;;;4972912;28;20498;-60
2023/09/21 05:54:40;;;;;;;2.35;0.70;;;17.60;99.90;;;;;;4957230;28;20528;-60
2023/09/21 05:57:06;;;;;;;1.40;0.50;;;17.60;99.90;;;;;;4957040;28;20050;-61
2023/09/21 05:59:31;;;;;;;2.38;0.90;;;17.60;99.90;;;;;;4990741;28;20118;-62
2023/09/21 06:01:58;;;;;;;0.30;0.30;;;17.60;99.90;;;;;;4992360;28;20050;-60
2023/09/21 06:04:24;;;;;;;4.10;0.88;;;17.60;99.90;;;;;;4988873;28;20066;-60
2023/09/21 06:06:55;;;;;;;0.85;0.60;;;17.60;99.90;;;;;;4968483;28;20052;-59
2023/09/21 06:09:24;;;;;;;1.95;0.88;;;17.50;99.90;;;;;;4992589;28;20064;-60
2023/09/21 06:11:51;;;;;;;1.33;0.52;;;17.60;99.90;;;;;;5008152;28;20386;-61
2023/09/21 06:14:18;;;;;;;2.03;0.70;;;17.50;99.90;;;;;;4972561;28;20038;-61
2023/09/21 06:16:45;;;;;;;1.85;0.60;;;17.50;99.90;;;;;;4972851;28;20117;-61
2023/09/21 06:19:12;;;;;;;0.80;0.50;;;17.50;99.90;;;;;;4972955;28;20486;-60
2023/09/21 06:21:39;;;;;;;1.17;0.43;;;17.50;99.90;;;;;;4971678;28;20088;-60
2023/09/21 06:24:09;;;;;;;1.67;0.93;;;17.50;99.90;;;;;;4972909;28;20137;-61
2023/09/21 06:26:35;;;;;;;2.55;0.98;;;17.50;99.90;;;;;;4972171;28;20050;-60
2023/09/21 06:29:01;;;;;;;3.15;0.50;;;17.40;99.90;;;;;;4972912;28;20095;-60
2023/09/21 06:31:27;;;;;;;1.52;0.82;;;17.40;99.90;;;;;;4990236;28;20045;-60
2023/09/21 06:33:58;;;;;;;1.10;0.45;;;17.40;99.90;;;;;;4956413;28;20039;-59
2023/09/21 06:36:32;;;;;;;1.45;0.70;;;17.30;99.90;;;;;;4973081;28;20099;-60
2023/09/21 06:38:58;;;;;;;0.93;0.45;;;17.30;99.90;;;;;;4973170;28;20046;-60
2023/09/21 06:41:29;;;;;;;0.88;0.50;;;17.20;99.90;;;;;;4956036;28;20050;-60
2023/09/21 06:43:55;;;;;;;0.77;0.50;;;17.20;99.90;;;;;;4989113;28;20047;-60
2023/09/21 06:46:21;;;;;;;1.13;0.57;;;17.10;99.90;;;;;;4972267;28;20057;-60
2023/09/21 06:48:48;;;;;;;1.38;0.57;;;17.10;99.90;;;;;;4978114;28;20384;-60
2023/09/21 06:51:14;;;;;;;2.47;0.60;;;17.00;99.90;;;;;;5009586;28;20046;-60
2023/09/21 06:53:40;;;;;;;2.90;1.05;;;16.90;99.90;;;;;;4982393;28;20045;-60
2023/09/21 06:56:06;;;;;;;0.77;0.50;;;16.80;99.90;;;;;;4971948;28;20050;-60
2023/09/21 06:58:32;;;;;;;4.93;1.48;;;16.90;99.90;;;;;;4972393;28;20046;-59
2023/09/21 07:00:58;;;;;;;3.75;1.00;;;16.80;99.90;;;;;;4950720;28;20078;-59
2023/09/21 07:03:24;;;;;;;2.45;1.08;;;16.80;99.90;;;;;;4970011;28;20046;-59
2023/09/21 07:05:50;;;;;;;1.33;0.63;;;16.80;99.90;;;;;;4970500;28;20479;-60
2023/09/21 07:08:18;;;;;;;1.42;0.90;;;16.70;99.90;;;;;;5005696;28;20507;-58
2023/09/21 07:10:44;;;;;;;1.23;0.52;;;16.70;99.90;;;;;;4967042;28;20054;-59
2023/09/21 07:13:11;;;;;;;2.03;0.60;;;16.70;99.90;;;;;;5005391;28;20093;-59
2023/09/21 07:15:37;;;;;;;2.83;0.88;;;16.70;99.90;;;;;;5066835;28;20042;-58
2023/09/21 07:18:05;;;;;;;1.25;0.65;;;16.70;99.90;;;;;;5074858;28;20085;-58
2023/09/21 07:20:32;;;;;;;1.80;0.90;;;16.70;99.90;;;;;;5056647;28;20043;-59
2023/09/21 07:22:58;;;;;;;1.92;0.60;;;16.70;99.90;;;;;;5051183;28;20086;-58
2023/09/21 07:25:28;;;;;;;2.45;0.95;;;16.70;99.90;;;;;;5056181;28;20048;-59
2023/09/21 07:27:55;;;;;;;1.13;0.60;;;16.70;99.90;;;;;;5091654;28;20169;-58
2023/09/21 07:30:22;;;;;;;0.70;0.50;;;16.70;99.90;;;;;;5089163;28;20115;-58
2023/09/21 07:32:47;;;;;;;1.60;0.85;;;16.70;99.90;;;;;;5073737;28;20048;-58
2023/09/21 07:35:14;;;;;;;1.35;0.70;;;16.70;99.90;;;;;;5016420;28;20046;-58
2023/09/21 07:37:46;;;;;;;1.90;0.93;;;16.70;99.90;;;;;;4984624;28;20364;-58
2023/09/21 07:40:16;;;;;;;1.25;0.75;;;16.70;99.90;;;;;;5014008;28;20090;-59
2023/09/21 07:42:46;;;;;;;1.25;0.80;;;16.70;99.90;;;;;;5057087;28;20116;-59
2023/09/21 07:45:12;;;;;;;2.17;0.60;;;16.70;99.90;;;;;;5056107;28;20078;-59
2023/09/21 07:47:40;;;;;;;5.43;1.08;;;16.70;99.90;;;;;;5080202;28;20492;-59
2023/09/21 07:50:06;;;;;;;2.63;1.10;;;16.60;99.90;;;;;;5012683;28;20372;-59
2023/09/21 07:52:36;;;;;;;1.73;0.80;;;16.60;99.90;;;;;;5089562;28;20036;-59
2023/09/21 07:55:04;;;;;;;2.03;0.60;;;16.60;99.90;;;;;;4971579;28;20522;-58
2023/09/21 07:57:34;;;;;;;0.45;0.28;;;16.60;99.90;;;;;;4970298;28;20049;-59
2023/09/21 08:00:00;;;;;;;0.13;0.13;;;16.50;99.90;;;;;;4968221;28;20085;-58
2023/09/21 08:02:30;;;;;;;0.60;0.20;;;16.30;99.90;;;;;;4969652;28;20039;-60
2023/09/21 08:04:57;;;;;;;0.55;0.15;;;16.20;99.90;;;;;;5005612;28;20050;-58
2023/09/21 08:07:25;;;;;;;1.15;0.40;;;16.10;99.90;;;;;;5072710;28;20140;-58
2023/09/21 08:09:54;;;;;;;0.73;0.10;;;15.90;99.90;;;;;;5056432;28;20077;-58
2023/09/21 08:12:21;;;;;;;0.38;0.20;;;15.80;99.90;;;;;;5072235;28;20119;-59
2023/09/21 08:14:48;;;;;;;0.22;0.10;;;15.70;99.90;;;;;;5073046;28;20044;-59
2023/09/21 08:17:13;;;;;;;0.35;0.20;;;15.60;99.90;;;;;;5090983;28;20537;-58
2023/09/21 08:19:40;;;;;;;0.50;0.38;;;15.40;99.90;;;;;;5090343;28;20043;-58
2023/09/21 08:22:06;;;;;;;0.82;0.32;;;15.40;99.90;;;;;;5072480;28;20096;-58
2023/09/21 08:24:35;;;;;;;1.08;0.35;;;15.30;99.90;;;;;;5059941;28;20046;-58
2023/09/21 08:27:03;;;;;;;3.75;0.22;;;15.30;99.90;;;;;;5057904;28;20044;-59
2023/09/21 08:29:30;;;;;;;0.13;0.10;;;15.20;99.90;;;;;;5067799;28;20494;-59
2023/09/21 08:31:57;;;;;;;0.38;0.03;;;15.20;99.90;;;;;;5088717;28;20169;-59
2023/09/21 08:34:23;;;;;;;0.20;0.10;;;15.20;99.90;;;;;;5067916;28;20034;-59
2023/09/21 08:36:50;;;;;;;1.38;0.20;;;15.20;99.90;;;;;;4988574;28;20046;-59
2023/09/21 08:39:16;;;;;;;1.02;0.40;;;15.20;99.90;;;;;;4988387;28;20553;-59
2023/09/21 08:41:48;;;;;;;0.80;0.43;;;15.10;99.90;;;;;;4970605;28;20352;-59
2023/09/21 08:44:14;;;;;;;0.43;0.30;;;15.10;99.90;;;;;;5059149;28;20035;-59
2023/09/21 08:46:40;;;;;;;0.73;0.40;;;15.10;99.90;;;;;;5026514;28;20134;-59
2023/09/21 08:49:07;;;;;;;1.05;0.20;;;15.10;99.90;;;;;;4970801;28;20141;-59
2023/09/21 08:51:37;;;;;;;3.70;0.70;;;15.20;99.90;;;;;;4970642;28;20050;-59
2023/09/21 08:54:03;;;;;;;;;;;15.20;99.90;;;;;;4986958;28;20046;-59
2023/09/21 08:56:33;;;;;;;0.43;0.15;;;15.20;99.90;;;;;;4988237;28;19918;-59
2023/09/21 08:59:01;;;;;;;0.08;0.08;;;15.20;99.90;;;;;;4971554;28;20050;-59
2023/09/21 09:01:27;;;;;;;0.35;0.35;;;15.30;99.90;;;;;;4976810;28;20061;-59
2023/09/21 09:03:56;;;;;;;0.35;0.20;;;15.30;99.90;;;;;;4988342;28;20038;-59
2023/09/21 09:10:05;;;;;;;0.93;0.32;;;15.40;99.90;;;;;;4994385;28;20515;-59
2023/09/21 09:12:31;;;;;;;0.13;0.13;;;15.40;99.90;;;;;;4994634;28;20436;-59
2023/09/21 09:14:57;;;;;;;0.68;0.20;;;15.40;99.90;;;;;;4972915;28;20046;-59
2023/09/21 09:17:30;;;;;;;0.85;0.25;;;15.50;99.90;;;;;;4989076;28;20038;-59
2023/09/21 09:19:57;;;;;;;0.45;0.20;;;15.50;99.90;;;;;;4985896;28;20052;-59
2023/09/21 09:22:24;;;;;;;0.60;0.32;;;15.50;99.90;;;;;;4992704;28;20082;-65
2023/09/21 09:24:53;;;;;;;0.30;0.17;;;15.50;99.90;;;;;;4996012;28;20056;-59
2023/09/21 09:27:19;;;;;;;0.38;0.30;;;15.60;99.90;;;;;;4996240;28;20057;-59
2023/09/21 09:29:54;;;;;;;0.10;0.10;;;15.60;99.90;;;;;;4985126;28;20466;-59
2023/09/21 09:32:20;;;;;;;0.45;0.30;;;15.50;99.90;;;;;;4973071;28;20042;-59
2023/09/21 09:34:47;;;;;;;0.20;0.10;;;15.60;99.90;;;;;;4976436;28;20042;-59
2023/09/21 09:37:15;;;;;;;0.25;0.20;;;15.60;99.90;;;;;;4976297;28;20042;-59
2023/09/21 09:39:44;;;;;;;0.35;0.10;;;15.60;99.90;;;;;;4976735;28;20498;-59
2023/09/21 09:42:14;;;;;;;0.28;0.10;;;15.60;99.90;;;;;;4976627;28;20042;-60
2023/09/21 09:44:45;;;;;;;0.65;0.20;;;15.60;99.90;;;;;;4995484;28;20046;-59
2023/09/21 09:47:16;;;;;;;0.30;0.10;;;15.50;99.90;;;;;;5013520;28;20154;-59
2023/09/21 09:49:45;;;;;;;0.35;0.17;;;15.40;99.90;;;;;;4993413;28;20133;-59
2023/09/21 09:52:13;;;;;;;0.10;0.10;;;15.40;99.90;;;;;;4976831;28;20370;-60
2023/09/21 09:54:40;;;;;;;1.05;0.35;;;15.40;99.90;;;;;;5066766;28;20043;-60
2023/09/21 09:57:13;;;;;;;0.45;0.20;;;15.30;99.90;;;;;;5056267;28;20164;-60
2023/09/21 09:59:41;;;;;;;0.15;0.15;;;15.30;99.90;;;;;;4976357;28;20043;-59
2023/09/21 10:02:13;;;;;;;1.20;0.28;;;15.30;99.90;;;;;;4976413;28;20049;-59
2023/09/21 10:04:40;;;;;;;0.80;0.20;;;15.30;99.90;;;;;;5093429;28;20055;-60
2023/09/21 10:07:06;;;;;;;1.23;0.22;;;15.30;99.90;;;;;;5061691;28;20044;-59
2023/09/21 10:09:33;;;;;;;0.10;0.10;;;15.20;99.90;;;;;;5011552;28;20050;-59
2023/09/21 10:12:03;;;;;;;0.10;0.10;;;15.20;99.90;;;;;;4975994;28;20034;-59
2023/09/21 10:14:33;;;;;;;0.10;0.05;;;15.20;99.90;;;;;;4976226;28;20479;-60
2023/09/21 10:17:05;;;;;;;0.30;0.10;;;15.20;99.90;;;;;;4976222;28;20497;-59
2023/09/21 10:19:38;;;;;;;0.38;0.22;;;15.20;99.90;;;;;;4974541;28;20127;-59
2023/09/21 10:22:26;;;;;;;0.20;0.20;;;15.20;99.90;;;;;;4973082;28;20042;-59
2023/09/21 10:24:58;;;;;;;0.50;0.10;;;15.30;99.90;;;;;;4975536;28;20058;-60
2023/09/21 10:27:27;;;;;;;0.38;0.20;;;15.30;99.90;;;;;;4989163;28;20053;-59
2023/09/21 10:30:00;;;;;;;1.10;0.37;;;15.30;99.90;;;;;;5091529;28;20061;-59
2023/09/21 10:32:41;;;;;;;0.45;0.20;;;15.40;99.90;;;;;;5074352;28;20100;-59
2023/09/21 10:35:11;;;;;;;0.20;0.20;;;15.40;99.90;;;;;;4989942;28;20051;-59
2023/09/21 10:37:37;;;;;;;;;;;15.50;99.90;;;;;;4990585;28;20131;-59
2023/09/21 10:40:08;;;;;;;0.50;0.35;;;15.50;99.90;;;;;;4971446;28;20343;-59
2023/09/21 10:42:37;;;;;;;0.43;0.30;;;15.50;99.90;;;;;;4989149;28;20039;-59
2023/09/21 10:45:07;;;;;;;0.68;0.20;;;15.50;99.90;;;;;;4971812;28;20089;-59
2023/09/21 10:47:36;;;;;;;0.30;0.20;;;15.50;99.90;;;;;;4971172;28;20494;-59
2023/09/21 10:50:07;;;;;;;0.70;0.30;;;15.60;99.90;;;;;;4971731;28;20505;-59
2023/09/21 10:52:34;;;;;;;0.20;0.10;;;15.60;99.90;;;;;;4971507;28;20082;-59
2023/09/21 10:55:00;;;;;;;0.30;0.20;;;15.60;99.90;;;;;;4971626;28;20047;-59
2023/09/21 10:57:30;;;;;;;0.47;0.20;;;15.60;99.90;;;;;;4971616;28;20053;-59
2023/09/21 10:59:59;;;;;;;0.15;0.10;;;15.60;99.90;;;;;;4988540;28;20047;-59
2023/09/21 11:02:30;;;;;;;0.10;0.10;;;15.70;99.90;;;;;;4971990;28;20166;-58
2023/09/21 11:04:58;;;;;;;0.13;0.13;;;15.70;99.90;;;;;;4971579;28;20046;-58
2023/09/21 11:07:25;;;;;;;0.50;0.20;;;15.70;99.90;;;;;;4971036;28;20398;-58
2023/09/21 11:09:51;;;;;;;1.92;0.20;;;15.80;99.90;;;;;;5003828;28;20034;-58
2023/09/21 11:12:17;;;;;;;0.35;0.20;;;16.00;99.90;;;;;;5050797;28;20514;-58
2023/09/21 11:14:50;;;;;;;0.60;0.40;;;16.10;99.90;;;;;;5072437;28;20046;-58
2023/09/21 11:17:16;;;;;;;0.60;0.30;;;16.10;99.90;;;;;;5092061;28;20036;-59
2023/09/21 11:19:43;;;;;;;0.00;0.00;;;16.10;99.90;;;;;;5056939;28;20048;-59
2023/09/21 11:22:10;;;;;;;0.40;0.17;;;16.00;99.90;;;;;;5073185;28;20063;-58
2023/09/21 11:24:37;;;;;;;0.73;0.43;;;15.90;99.90;;;;;;5009641;28;20096;-58
2023/09/21 11:27:09;;;;;;;1.08;0.45;;;15.80;99.90;;;;;;5087872;28;20050;-58
2023/09/21 11:29:51;;;;;;;1.20;0.38;;;15.80;99.90;;;;;;4988824;28;20343;-58
2023/09/21 11:32:22;;;;;;;0.25;0.20;;;15.70;99.90;;;;;;4970944;28;20058;-58
2023/09/21 11:34:57;;;;;;;0.32;0.20;;;15.70;99.90;;;;;;4987695;28;20075;-58
2023/09/21 11:37:24;;;;;;;0.17;0.17;;;15.80;99.90;;;;;;4970914;28;20391;-59
2023/09/21 11:39:51;;;;;;;0.70;0.30;;;15.70;99.90;;;;;;4955720;28;20046;-59
2023/09/21 11:42:20;;;;;;;0.32;0.20;;;15.70;99.90;;;;;;4971112;28;20114;-58
2023/09/21 11:44:50;;;;;;;0.10;0.10;;;15.70;99.90;;;;;;4970919;28;20038;-58
2023/09/21 11:47:16;;;;;;;0.38;0.20;;;15.70;99.90;;;;;;4971736;28;20095;-58
2023/09/21 11:49:43;;;;;;;0.10;0.10;;;15.70;99.90;;;;;;4988824;28;20042;-58
2023/09/21 11:52:11;;;;;;;0.50;0.10;;;15.70;99.90;;;;;;4978499;28;20042;-58
2023/09/21 11:54:40;;;;;;;0.10;0.10;;;15.80;99.90;;;;;;4984383;28;20049;-58
2023/09/21 11:57:09;;;;;;;0.28;0.20;;;15.90;99.90;;;;;;4971020;28;20045;-58
2023/09/21 11:59:39;;;;;;;0.03;0.03;;;16.00;99.90;;;;;;5072775;28;20486;-58
2023/09/21 12:02:09;;;;;;;0.63;0.30;;;16.10;99.90;;;;;;5072739;28;20049;-58
2023/09/21 12:04:39;;;;;;;0.45;0.20;;;16.20;99.90;;;;;;4988324;28;20039;-59
2023/09/21 12:07:05;;;;;;;0.43;0.30;;;16.30;99.90;;;;;;4988830;28;20122;-58
2023/09/21 12:09:36;;;;;;;0.40;0.28;;;16.30;99.90;;;;;;5072636;28;20046;-58
2023/09/21 12:12:04;;;;;;;0.75;0.28;;;16.30;99.90;;;;;;4988886;28;20038;-59
2023/09/21 12:14:30;;;;;;;0.20;0.20;;;16.30;99.90;;;;;;5072804;28;20123;-58
2023/09/21 12:17:01;;;;;;;0.20;0.20;;;16.30;99.90;;;;;;5072239;28;20081;-59
2023/09/21 12:19:28;;;;;;;0.45;0.10;;;16.30;99.90;;;;;;4993012;28;20081;-59
2023/09/21 12:21:56;;;;;;;1.35;0.22;;;16.20;99.90;;;;;;4990748;28;20073;-58
2023/09/21 12:24:22;;;;;;;0.22;0.20;;;16.20;99.90;;;;;;4993750;28;20707;-59
2023/09/21 12:26:47;;;;;;;0.52;0.32;;;16.20;99.90;;;;;;4968666;28;20136;-58
2023/09/21 12:29:17;;;;;;;0.50;0.22;;;16.30;99.90;;;;;;5052229;28;20068;-59
2023/09/21 12:31:45;;;;;;;0.47;0.20;;;16.40;99.90;;;;;;5051727;28;20044;-59
2023/09/21 12:34:14;;;;;;;0.28;0.20;;;16.30;99.90;;;;;;5068999;28;20430;-59
2023/09/21 12:36:42;;;;;;;1.52;0.20;;;16.30;99.90;;;;;;5052539;28;20102;-59
2023/09/21 12:39:09;;;;;;;0.38;0.20;;;16.30;99.90;;;;;;5050598;28;20044;-60
2023/09/21 12:41:38;;;;;;;1.27;0.40;;;16.30;99.90;;;;;;5051019;28;20049;-59
2023/09/21 12:44:06;;;;;;;3.55;0.55;;;16.20;99.90;;;;;;5051719;28;20117;-59
2023/09/21 12:46:32;;;;;;;0.73;0.40;;;16.10;99.90;;;;;;5051645;28;20079;-59
2023/09/21 12:48:58;;;;;;;2.00;0.30;;;16.10;99.90;;;;;;5070209;28;20036;-59
2023/09/21 12:51:24;;;;;;;0.43;0.30;;;16.00;99.90;;;;;;5051939;28;20048;-60
2023/09/21 12:53:50;;;;;;;0.28;0.10;;;16.00;99.90;;;;;;5051464;28;20041;-59